createdAt,value
2018-11-05T00:02:26.296Z,105.17
2018-11-05T00:04:55.296Z,96.32
2018-11-05T00:07:24.078Z,100.78
2018-11-05T00:09:53.031Z,97.88
2018-11-05T00:12:22.425Z,100.55
2018-11-05T00:14:51.234Z,124.22
2018-11-05T00:17:20.339Z,105.37
2018-11-05T00:19:48.991Z,104.07
2018-11-05T00:22:18.984Z,105.67
2018-11-05T00:24:47.809Z,102.67
2018-11-05T00:27:16.470Z,111.65
2018-11-05T00:29:45.596Z,100.47
2018-11-05T00:32:14.293Z,103.60
2018-11-05T00:34:42.957Z,105.52
2018-11-05T00:37:11.657Z,108.47
2018-11-05T00:39:40.262Z,124.30
2018-11-05T00:42:08.872Z,114.42
2018-11-05T00:44:37.644Z,138.88
2018-11-05T00:47:06.696Z,125.90
2018-11-05T00:49:36.574Z,119.50
2018-11-05T00:52:05.354Z,120.87
2018-11-05T00:54:34.249Z,132.93
2018-11-05T00:57:02.780Z,123.80
2018-11-05T00:59:31.431Z,126.80
2018-11-05T01:02:00.522Z,129.03
2018-11-05T01:04:29.230Z,123.78
2018-11-05T01:06:58.560Z,136.75
2018-11-05T01:09:27.272Z,120.22
2018-11-05T01:11:55.949Z,123.38
2018-11-05T01:14:24.524Z,131.82
2018-11-05T01:16:52.845Z,126.90
2018-11-05T01:19:21.643Z,126.70
2018-11-05T01:21:50.441Z,134.20
2018-11-05T01:24:18.994Z,123.07
2018-11-05T01:26:47.552Z,134.37
2018-11-05T01:29:16.188Z,138.00
2018-11-05T01:31:45.439Z,132.85
2018-11-05T01:34:14.246Z,131.00
2018-11-05T01:36:43.006Z,132.30
2018-11-05T01:39:14.605Z,141.35
2018-11-05T01:41:43.248Z,139.22
2018-11-05T01:44:12.311Z,134.75
2018-11-05T01:46:41.059Z,132.97
2018-11-05T01:49:09.760Z,137.52
2018-11-05T01:51:39.054Z,129.57
2018-11-05T01:54:14.374Z,140.18
2018-11-05T01:56:43.155Z,129.68
2018-11-05T01:59:11.989Z,134.30
2018-11-05T02:01:41.169Z,139.03
2018-11-05T02:04:09.857Z,143.28
2018-11-05T02:06:38.579Z,135.48
2018-11-05T02:09:07.732Z,135.43
2018-11-05T02:11:36.377Z,132.80
2018-11-05T02:14:04.763Z,145.30
2018-11-05T02:16:33.177Z,131.22
2018-11-05T02:19:01.821Z,150.00
2018-11-05T02:21:30.399Z,155.72
2018-11-05T02:23:58.905Z,142.32
2018-11-05T02:26:27.389Z,136.22
2018-11-05T02:28:55.714Z,125.07
2018-11-05T02:31:25.108Z,139.55
2018-11-05T02:33:53.486Z,136.62
2018-11-05T02:36:21.860Z,130.18
2018-11-05T02:38:50.523Z,129.47
2018-11-05T02:41:19.077Z,138.68
2018-11-05T02:43:47.968Z,129.82
2018-11-05T02:46:17.406Z,138.70
2018-11-05T02:48:45.912Z,135.18
2018-11-05T02:51:14.283Z,131.70
2018-11-05T02:53:42.932Z,151.85
2018-11-05T02:56:11.359Z,119.55
2018-11-05T02:58:39.793Z,133.20
2018-11-05T03:01:08.317Z,137.77
2018-11-05T03:03:39.657Z,132.57
2018-11-05T03:06:08.116Z,141.40
2018-11-05T03:08:36.700Z,135.22
2018-11-05T03:11:05.278Z,141.00
2018-11-05T03:13:33.635Z,141.10
2018-11-05T03:16:02.030Z,126.18
2018-11-05T03:18:30.422Z,112.75
2018-11-05T03:20:58.808Z,126.50
2018-11-05T03:23:27.165Z,122.20
2018-11-05T03:25:55.488Z,130.40
2018-11-05T03:28:32.299Z,132.85
2018-11-05T03:31:09.792Z,127.67
2018-11-05T03:36:20.678Z,121.20
2018-11-05T03:38:52.743Z,129.72
2018-11-05T03:41:27.648Z,118.77
2018-11-05T03:44:01.879Z,117.55
2018-11-05T03:46:33.406Z,139.75
2018-11-05T03:49:07.968Z,119.82
2018-11-05T03:51:43.292Z,132.22
2018-11-05T03:54:17.106Z,142.95
2018-11-05T03:56:58.901Z,119.80
2018-11-05T03:59:32.324Z,134.22
2018-11-05T04:02:07.940Z,125.65
2018-11-05T04:04:42.343Z,128.30
2018-11-05T04:07:19.320Z,129.87
2018-11-05T04:09:53.247Z,116.20
2018-11-05T04:12:24.396Z,131.93
2018-11-05T04:14:57.072Z,133.43
2018-11-05T04:17:29.138Z,127.32
2018-11-05T04:20:02.820Z,118.75
2018-11-05T04:22:37.244Z,121.37
2018-11-05T04:25:10.743Z,95.05
2018-11-05T04:27:42.406Z,117.30
2018-11-05T04:30:18.365Z,109.80
2018-11-05T04:32:50.554Z,120.17
2018-11-05T04:35:28.017Z,114.52
2018-11-05T04:38:13.410Z,112.75
2018-11-05T04:40:54.983Z,109.75
2018-11-05T04:43:27.929Z,106.55
2018-11-05T04:45:59.217Z,102.95
2018-11-05T04:48:33.229Z,98.97
2018-11-05T04:51:06.421Z,109.03
2018-11-05T04:53:35.927Z,92.70
2018-11-05T04:56:10.143Z,104.60
2018-11-05T04:58:41.286Z,103.30
2018-11-05T05:04:19.395Z,104.38
2018-11-05T05:06:50.049Z,103.95
2018-11-05T05:09:29.998Z,106.40
2018-11-05T05:12:13.700Z,109.55
2018-11-05T05:17:54.861Z,94.00
2018-11-05T05:20:28.026Z,92.27
2018-11-05T05:25:58.871Z,95.17
2018-11-05T05:28:28.224Z,100.95
2018-11-05T05:30:56.935Z,105.27
2018-11-05T05:33:25.594Z,93.17
2018-11-05T05:35:54.646Z,111.55
2018-11-05T05:38:23.439Z,106.12
2018-11-05T05:40:52.300Z,97.50
2018-11-05T05:43:20.905Z,97.67
2018-11-05T05:45:49.415Z,102.40
2018-11-05T05:48:18.085Z,106.75
2018-11-05T05:50:53.369Z,100.60
2018-11-05T05:53:22.260Z,99.40
2018-11-05T05:55:50.860Z,96.70
2018-11-05T05:58:19.829Z,102.97
2018-11-05T06:00:49.106Z,97.25
2018-11-05T06:03:18.190Z,102.42
2018-11-05T06:05:47.826Z,96.75
2018-11-05T06:08:16.668Z,88.05
2018-11-05T06:10:45.663Z,96.67
2018-11-05T06:13:14.377Z,102.60
2018-11-05T06:15:43.123Z,92.55
2018-11-05T06:18:11.836Z,95.12
2018-11-05T06:20:42.883Z,96.82
2018-11-05T06:23:11.527Z,93.17
2018-11-05T06:25:40.173Z,84.03
2018-11-05T06:28:09.073Z,88.90
2018-11-05T06:30:37.895Z,96.20
2018-11-05T06:33:06.834Z,94.03
2018-11-05T06:35:35.892Z,94.97
2018-11-05T06:38:05.579Z,86.60
2018-11-05T06:40:34.576Z,88.37
2018-11-05T06:43:03.421Z,90.87
2018-11-05T06:45:32.280Z,87.10
2018-11-05T06:48:12.680Z,86.90
2018-11-05T06:50:50.365Z,96.63
2018-11-05T06:53:28.279Z,99.37
2018-11-05T06:56:03.911Z,87.65
2018-11-05T06:58:40.592Z,86.78
2018-11-05T07:01:13.995Z,91.40
2018-11-05T07:06:35.945Z,79.25
2018-11-05T07:09:13.125Z,79.05
2018-11-05T07:11:48.774Z,77.65
2018-11-05T07:14:22.996Z,80.97
2018-11-05T07:16:56.181Z,81.08
2018-11-05T07:19:28.738Z,86.02
2018-11-05T07:22:05.736Z,93.03
2018-11-05T07:24:41.487Z,84.65
2018-11-05T07:27:24.036Z,77.67
2018-11-05T07:29:52.830Z,84.25
2018-11-05T07:32:21.324Z,84.42
2018-11-05T07:34:49.933Z,80.42
2018-11-05T07:37:19.388Z,91.50
2018-11-05T07:39:48.104Z,73.90
2018-11-05T07:42:16.819Z,83.82
2018-11-05T07:44:45.510Z,85.97
2018-11-05T07:47:14.544Z,76.55
2018-11-05T07:49:43.554Z,77.32
2018-11-05T07:52:12.659Z,73.97
2018-11-05T07:54:41.472Z,94.45
2018-11-05T07:57:10.846Z,81.57
2018-11-05T07:59:40.235Z,83.37
2018-11-05T08:02:15.416Z,84.67
2018-11-05T08:04:50.840Z,84.30
2018-11-05T08:07:30.158Z,80.85
2018-11-05T08:09:58.932Z,64.20
2018-11-05T08:12:27.823Z,74.97
2018-11-05T08:14:56.456Z,73.35
2018-11-05T08:17:25.212Z,86.17
2018-11-05T08:19:54.043Z,76.45
2018-11-05T08:22:22.576Z,80.65
2018-11-05T08:24:51.451Z,76.82
2018-11-05T08:27:20.221Z,84.13
2018-11-05T08:29:48.947Z,77.03
2018-11-05T08:32:17.659Z,79.47
2018-11-05T08:34:46.541Z,80.45
2018-11-05T08:37:15.395Z,71.82
2018-11-05T08:39:44.338Z,79.97
2018-11-05T08:42:13.069Z,72.92
2018-11-05T08:44:41.713Z,74.00
2018-11-05T08:47:10.562Z,83.07
2018-11-05T08:49:39.309Z,78.70
2018-11-05T08:52:08.405Z,69.92
2018-11-05T08:54:37.029Z,73.37
2018-11-05T08:57:06.240Z,71.45
2018-11-05T08:59:34.973Z,72.70
2018-11-05T09:02:03.738Z,69.90
2018-11-05T09:04:32.538Z,70.62
2018-11-05T09:07:01.136Z,78.47
2018-11-05T09:09:29.923Z,81.90
2018-11-05T09:11:58.782Z,68.47
2018-11-05T09:14:27.408Z,70.80
2018-11-05T09:16:57.132Z,68.72
2018-11-05T09:19:25.806Z,76.82
2018-11-05T09:21:55.499Z,69.30
2018-11-05T09:24:24.419Z,72.40
2018-11-05T09:26:53.173Z,83.90
2018-11-05T09:29:21.872Z,71.30
2018-11-05T09:31:50.588Z,76.05
2018-11-05T09:34:19.275Z,71.42
2018-11-05T09:36:48.036Z,68.78
2018-11-05T09:39:16.787Z,71.67
2018-11-05T09:41:45.397Z,76.80
2018-11-05T09:44:14.085Z,68.30
2018-11-05T09:46:42.803Z,79.55
2018-11-05T09:49:11.612Z,68.20
2018-11-05T09:51:40.474Z,71.35
2018-11-05T09:54:09.346Z,70.87
2018-11-05T09:56:38.243Z,71.07
2018-11-05T09:59:07.054Z,74.40
2018-11-05T10:01:35.896Z,73.02
2018-11-05T10:04:04.732Z,79.97
2018-11-05T10:06:33.281Z,81.35
2018-11-05T10:09:01.992Z,68.78
2018-11-05T10:11:30.554Z,82.72
2018-11-05T10:13:59.187Z,76.75
2018-11-05T10:16:27.945Z,74.95
2018-11-05T10:19:00.313Z,68.97
2018-11-05T10:21:29.014Z,71.00
2018-11-05T10:23:58.432Z,68.67
2018-11-05T10:26:27.399Z,65.45
2018-11-05T10:28:56.310Z,80.67
2018-11-05T10:31:30.302Z,69.80
2018-11-05T10:33:59.035Z,67.37
2018-11-05T10:36:27.844Z,58.90
2018-11-05T10:38:56.564Z,61.18
2018-11-05T10:41:25.719Z,68.65
2018-11-05T10:43:54.498Z,64.12
2018-11-05T10:46:23.157Z,64.32
2018-11-05T10:48:51.818Z,59.00
2018-11-05T10:51:20.561Z,63.10
2018-11-05T10:53:49.278Z,57.00
2018-11-05T10:56:17.977Z,58.17
2018-11-05T10:58:46.771Z,66.85
2018-11-05T11:01:16.289Z,64.45
2018-11-05T11:03:50.420Z,58.58
2018-11-05T11:06:19.166Z,65.28
2018-11-05T11:08:47.970Z,57.70
2018-11-05T11:11:16.890Z,61.50
2018-11-05T11:13:45.516Z,63.65
2018-11-05T11:16:14.228Z,62.35
2018-11-05T11:18:42.872Z,62.33
2018-11-05T11:21:11.625Z,59.20
2018-11-05T11:23:40.609Z,64.30
2018-11-05T11:26:09.431Z,63.83
2018-11-05T11:28:44.711Z,66.40
2018-11-05T11:31:13.445Z,66.07
2018-11-05T11:33:42.596Z,66.53
2018-11-05T11:36:11.737Z,69.05
2018-11-05T11:38:40.457Z,61.50
2018-11-05T11:41:09.066Z,63.65
2018-11-05T11:43:37.634Z,61.30
2018-11-05T11:46:06.890Z,68.43
2018-11-05T11:48:35.529Z,60.25
2018-11-05T11:51:04.138Z,60.28
2018-11-05T11:53:33.477Z,64.30
2018-11-05T11:56:02.232Z,62.90
2018-11-05T11:58:30.942Z,61.28
2018-11-05T12:00:59.761Z,61.60
2018-11-05T12:03:28.564Z,70.25
2018-11-05T12:05:57.232Z,72.27
2018-11-05T12:08:26.138Z,60.12
2018-11-05T12:10:54.792Z,58.27
2018-11-05T12:13:23.429Z,63.40
2018-11-05T12:15:53.182Z,65.00
2018-11-05T12:18:22.622Z,65.70
2018-11-05T12:20:51.284Z,64.90
2018-11-05T12:23:21.095Z,58.23
2018-11-05T12:25:50.523Z,63.80
2018-11-05T12:28:19.426Z,58.07
2018-11-05T12:30:49.062Z,69.13
2018-11-05T12:33:18.724Z,72.10
2018-11-05T12:35:47.512Z,59.30
2018-11-05T12:38:17.149Z,61.70
2018-11-05T12:40:45.780Z,53.70
2018-11-05T12:43:14.533Z,61.60
2018-11-05T12:45:43.265Z,56.50
2018-11-05T12:48:12.275Z,63.70
2018-11-05T12:50:41.000Z,59.30
2018-11-05T12:53:09.852Z,63.20
2018-11-05T12:55:38.503Z,55.03
2018-11-05T13:00:42.468Z,63.67
2018-11-05T13:03:11.287Z,61.20
2018-11-05T13:05:41.565Z,61.58
2018-11-05T13:08:10.272Z,67.37
2018-11-05T13:10:38.943Z,61.98
2018-11-05T13:13:07.717Z,62.43
2018-11-05T13:15:36.445Z,55.60
2018-11-05T13:18:05.113Z,64.35
2018-11-05T13:20:34.531Z,60.90
2018-11-05T13:23:03.252Z,56.60
2018-11-05T13:25:31.892Z,62.33
2018-11-05T13:28:00.570Z,57.40
2018-11-05T13:30:29.248Z,56.87
2018-11-05T13:33:01.602Z,66.00
2018-11-05T13:35:30.438Z,59.80
2018-11-05T13:37:59.689Z,53.40
2018-11-05T13:40:28.218Z,56.37
2018-11-05T13:42:56.883Z,61.18
2018-11-05T13:45:25.794Z,53.73
2018-11-05T13:47:55.430Z,56.73
2018-11-05T13:50:23.976Z,60.50
2018-11-05T13:52:52.512Z,57.17
2018-11-05T13:55:21.271Z,59.07
2018-11-05T13:57:49.961Z,54.20
2018-11-05T14:00:20.108Z,57.23
2018-11-05T14:02:49.201Z,56.93
2018-11-05T14:05:19.672Z,60.45
2018-11-05T14:07:49.296Z,59.70
2018-11-05T14:10:21.200Z,53.70
2018-11-05T14:12:50.366Z,60.40
2018-11-05T14:15:19.046Z,60.37
2018-11-05T14:17:47.906Z,66.82
2018-11-05T14:20:17.847Z,53.30
2018-11-05T14:22:46.649Z,57.27
2018-11-05T14:25:16.674Z,56.75
2018-11-05T14:27:46.936Z,66.60
2018-11-05T14:30:15.544Z,55.73
2018-11-05T14:32:46.019Z,61.15
2018-11-05T14:35:14.885Z,59.30
2018-11-05T14:37:51.358Z,64.58
2018-11-05T14:40:21.479Z,54.25
2018-11-05T14:44:03.603Z,54.27
2018-11-05T14:46:33.346Z,68.60
2018-11-05T14:49:03.888Z,67.80
2018-11-05T14:51:35.383Z,64.35
2018-11-05T14:54:04.847Z,58.20
2018-11-05T14:56:34.183Z,55.40
2018-11-05T14:59:32.467Z,63.73
2018-11-05T15:02:11.179Z,67.12
2018-11-05T15:04:53.423Z,65.52
2018-11-05T15:07:22.230Z,60.88
2018-11-05T15:09:51.082Z,69.53
2018-11-05T15:12:21.170Z,64.80
2018-11-05T15:14:50.059Z,66.25
2018-11-05T15:17:32.270Z,73.17
2018-11-05T15:20:01.564Z,70.05
2018-11-05T15:22:53.026Z,73.50
2018-11-05T15:25:22.306Z,63.48
2018-11-05T15:28:05.089Z,64.60
2018-11-05T15:30:35.731Z,65.47
2018-11-05T15:33:48.536Z,69.03
2018-11-05T15:36:33.624Z,85.15
2018-11-05T15:39:12.551Z,87.22
2018-11-05T15:41:41.289Z,80.97
2018-11-05T15:44:10.047Z,77.32
2018-11-05T15:46:39.068Z,81.63
2018-11-05T15:49:07.939Z,72.82
2018-11-05T15:51:36.884Z,85.15
2018-11-05T15:54:06.632Z,83.50
2018-11-05T15:56:35.505Z,73.33
2018-11-05T15:59:04.263Z,80.00
2018-11-05T16:04:42.184Z,74.27
2018-11-05T16:07:11.092Z,66.67
2018-11-05T16:09:40.667Z,67.50
2018-11-05T16:12:10.041Z,65.42
2018-11-05T16:14:39.401Z,63.02
2018-11-05T16:17:08.245Z,71.50
2018-11-05T16:19:36.978Z,65.05
2018-11-05T16:22:06.265Z,68.75
2018-11-05T16:24:36.120Z,80.97
2018-11-05T16:27:09.442Z,58.25
2018-11-05T16:29:38.572Z,78.35
2018-11-05T16:32:07.391Z,70.50
2018-11-05T16:34:36.874Z,74.37
2018-11-05T16:37:13.140Z,75.10
2018-11-05T16:39:42.016Z,72.22
2018-11-05T16:42:16.834Z,65.70
2018-11-05T16:44:45.459Z,65.10
2018-11-05T16:47:14.043Z,64.55
2018-11-05T16:49:42.600Z,65.55
2018-11-05T16:52:11.613Z,61.10
2018-11-05T16:54:40.304Z,65.50
2018-11-05T16:57:08.978Z,61.30
2018-11-05T16:59:37.945Z,61.15
2018-11-05T17:02:12.932Z,54.53
2018-11-05T17:04:41.718Z,55.60
2018-11-05T17:07:10.778Z,58.28
2018-11-05T17:09:39.460Z,58.20
2018-11-05T17:12:08.476Z,60.45
2018-11-05T17:14:39.306Z,57.45
2018-11-05T17:17:14.621Z,60.00
2018-11-05T17:19:51.260Z,59.00
2018-11-05T17:22:20.126Z,63.28
2018-11-05T17:24:49.128Z,66.90
2018-11-05T17:27:17.886Z,58.90
2018-11-05T17:29:46.596Z,68.12
2018-11-05T17:32:15.435Z,59.45
2018-11-05T17:34:44.653Z,59.65
2018-11-05T17:37:13.543Z,58.90
2018-11-05T17:39:42.410Z,58.10
2018-11-05T17:42:11.707Z,50.52
2018-11-05T17:44:40.644Z,51.48
2018-11-05T17:47:09.632Z,59.90
2018-11-05T17:49:38.712Z,61.65
2018-11-05T17:52:07.585Z,57.33
2018-11-05T17:54:36.442Z,60.83
2018-11-05T17:57:05.268Z,55.17
2018-11-05T17:59:34.097Z,58.30
2018-11-05T18:02:03.021Z,63.15
2018-11-05T18:04:31.968Z,54.53
2018-11-05T18:07:00.912Z,55.43
2018-11-05T18:09:29.928Z,50.75
2018-11-05T18:11:59.326Z,54.08
2018-11-05T18:14:29.799Z,59.25
2018-11-05T18:16:58.642Z,57.95
2018-11-05T18:19:34.205Z,51.77
2018-11-05T18:22:02.999Z,54.05
2018-11-05T18:24:31.906Z,55.48
2018-11-05T18:27:00.699Z,55.30
2018-11-05T18:29:29.550Z,55.30
2018-11-05T18:31:58.331Z,53.42
2018-11-05T18:34:27.126Z,51.40
2018-11-05T18:37:02.207Z,54.30
2018-11-05T18:39:31.809Z,50.40
2018-11-05T18:42:00.588Z,52.13
2018-11-05T18:44:29.499Z,52.15
2018-11-05T18:46:59.093Z,50.52
2018-11-05T18:49:27.889Z,51.23
2018-11-05T18:51:56.845Z,46.65
2018-11-05T18:54:25.769Z,55.88
2018-11-05T18:56:54.652Z,46.73
2018-11-05T18:59:23.516Z,49.38
2018-11-05T19:01:52.983Z,48.45
2018-11-05T19:04:21.744Z,53.00
2018-11-05T19:06:51.195Z,56.40
2018-11-05T19:09:19.989Z,55.78
2018-11-05T19:11:48.841Z,50.35
2018-11-05T19:14:18.041Z,50.67
2018-11-05T19:16:47.137Z,51.37
2018-11-05T19:19:16.700Z,48.85
2018-11-05T19:21:45.434Z,51.53
2018-11-05T19:24:14.412Z,47.05
2018-11-05T19:26:43.418Z,50.55
2018-11-05T19:29:12.340Z,47.70
2018-11-05T19:31:42.046Z,45.00
2018-11-05T19:34:10.775Z,44.88
2018-11-05T19:36:40.282Z,42.90
2018-11-05T19:39:10.970Z,39.40
2018-11-05T19:41:40.337Z,48.70
2018-11-05T19:44:09.796Z,46.33
2018-11-05T19:46:39.008Z,44.00
2018-11-05T19:49:08.193Z,41.53
2018-11-05T19:51:37.079Z,49.03
2018-11-05T19:54:07.425Z,44.85
2018-11-05T19:56:36.503Z,44.00
2018-11-05T19:59:06.100Z,38.10
2018-11-05T20:01:42.156Z,34.43
2018-11-05T20:04:22.944Z,40.75
2018-11-05T20:06:51.662Z,42.00
2018-11-05T20:09:29.973Z,39.88
2018-11-05T20:11:58.687Z,39.13
2018-11-05T20:14:27.629Z,38.55
2018-11-05T20:16:56.664Z,38.85
2018-11-05T20:19:25.419Z,38.85
2018-11-05T20:21:54.393Z,39.83
2018-11-05T20:24:23.944Z,36.40
2018-11-05T20:26:52.739Z,40.48
2018-11-05T20:29:22.390Z,33.90
2018-11-05T20:31:52.285Z,36.23
2018-11-05T20:34:21.059Z,38.25
2018-11-05T20:36:49.636Z,34.75
2018-11-05T20:39:18.371Z,30.45
2018-11-05T20:41:47.203Z,33.18
2018-11-05T20:44:16.058Z,36.55
2018-11-05T20:46:45.447Z,37.33
2018-11-05T20:49:14.258Z,33.10
2018-11-05T20:51:43.045Z,34.65
2018-11-05T20:54:12.413Z,32.83
2018-11-05T20:56:41.370Z,30.70
2018-11-05T20:59:11.111Z,34.95
2018-11-05T21:01:39.823Z,35.85
2018-11-05T21:07:25.764Z,38.75
2018-11-05T21:10:22.827Z,36.38
2018-11-05T21:15:25.136Z,34.90
2018-11-05T21:17:54.429Z,26.93
2018-11-05T21:20:36.336Z,32.45
2018-11-05T21:23:28.810Z,29.70
2018-11-05T21:25:57.507Z,29.02
2018-11-05T21:28:26.203Z,29.05
2018-11-05T21:30:54.940Z,28.52
2018-11-05T21:33:23.658Z,27.45
2018-11-05T21:35:52.340Z,28.57
2018-11-05T21:38:22.487Z,27.65
2018-11-05T21:40:51.223Z,29.27
2018-11-05T21:43:20.396Z,32.70
2018-11-05T21:45:49.103Z,28.15
2018-11-05T21:48:17.840Z,29.50
2018-11-05T21:50:46.448Z,30.32
2018-11-05T21:53:15.103Z,29.82
2018-11-05T21:55:51.548Z,26.90
2018-11-05T21:58:22.689Z,32.03
2018-11-05T22:00:51.272Z,33.25
2018-11-05T22:03:20.098Z,30.52
2018-11-05T22:05:49.078Z,27.45
2018-11-05T22:08:17.722Z,24.85
2018-11-05T22:10:46.297Z,30.52
2018-11-05T22:13:14.952Z,29.45
2018-11-05T22:15:45.672Z,32.70
2018-11-05T22:18:15.013Z,26.10
2018-11-05T22:20:43.631Z,27.00
2018-11-05T22:23:15.299Z,25.52
2018-11-05T22:25:43.994Z,33.67
2018-11-05T22:28:12.721Z,25.68
2018-11-05T22:30:41.426Z,27.80
2018-11-05T22:33:10.085Z,32.17
2018-11-05T22:35:38.710Z,23.55
2018-11-05T22:38:07.396Z,23.05
2018-11-05T22:40:36.017Z,26.77
2018-11-05T22:43:04.881Z,23.85
2018-11-05T22:45:33.510Z,23.95
2018-11-05T22:48:02.153Z,27.48
2018-11-05T22:50:30.862Z,26.37
2018-11-05T22:52:59.549Z,29.70
2018-11-05T22:55:28.198Z,25.37
2018-11-05T22:57:56.830Z,21.27
2018-11-05T23:00:30.545Z,29.57
2018-11-05T23:03:04.512Z,30.50
2018-11-05T23:05:33.383Z,24.00
2018-11-05T23:08:02.254Z,26.62
2018-11-05T23:10:30.877Z,24.87
2018-11-05T23:12:59.453Z,26.17
2018-11-05T23:15:28.113Z,28.07
2018-11-05T23:17:56.761Z,23.40
2018-11-05T23:20:25.357Z,23.30
2018-11-05T23:22:53.978Z,20.50
2018-11-05T23:25:22.549Z,21.52
2018-11-05T23:27:51.188Z,21.00
2018-11-05T23:30:19.749Z,22.42
2018-11-05T23:32:48.295Z,21.73
2018-11-05T23:35:16.881Z,24.05
2018-11-05T23:37:45.456Z,23.52
2018-11-05T23:40:14.024Z,28.23
2018-11-05T23:42:42.565Z,23.62
2018-11-05T23:45:13.085Z,21.45
2018-11-05T23:47:41.591Z,22.75
2018-11-05T23:50:10.446Z,23.83
2018-11-05T23:52:55.444Z,19.25
2018-11-05T23:55:23.782Z,23.55
2018-11-05T23:57:52.141Z,23.85
